Time,TemperatureF,DewpointF,PressureIn,WindDirection,WindDirectionDegrees,WindSpeedMPH,WindSpeedGustMPH,Humidity,HourlyPrecipIn,Conditions,Clouds,dailyrainin,SoftwareType,DateUTC
2013-09-26 00:02:00,32.2,23.9,23.98,North,0,40.0,46.0,71,0.00,,,0.00,meteohub,2013-09-26 06:02:00,
2013-09-26 00:07:00,32.2,23.9,23.99,North,0,40.0,46.0,71,0.00,,,0.00,meteohub,2013-09-26 06:07:00,
2013-09-26 00:12:00,32.4,24.1,23.97,North,0,27.0,42.0,71,0.00,,,0.00,meteohub,2013-09-26 06:12:00,
2013-09-26 00:17:00,32.2,23.9,23.98,North,0,35.0,40.0,71,0.00,,,0.00,meteohub,2013-09-26 06:17:00,
2013-09-26 00:22:00,32.2,23.9,23.98,North,0,34.0,40.0,71,0.00,,,0.00,meteohub,2013-09-26 06:22:00,
2013-09-26 00:27:00,32.2,23.5,23.98,North,0,41.0,41.0,70,0.00,,,0.00,meteohub,2013-09-26 06:27:00,
2013-09-26 00:32:00,32.2,23.5,23.98,North,0,30.0,41.0,70,0.00,,,0.00,meteohub,2013-09-26 06:32:00,
2013-09-26 00:37:00,32.2,23.2,23.99,North,0,28.0,41.0,69,0.00,,,0.00,meteohub,2013-09-26 06:37:00,
2013-09-26 00:42:00,32.0,23.4,23.99,North,0,21.0,41.0,70,0.00,,,0.00,meteohub,2013-09-26 06:42:00,
2013-09-26 00:47:00,32.0,23.4,23.99,North,0,22.0,31.0,70,0.00,,,0.00,meteohub,2013-09-26 06:47:00,
2013-09-26 00:52:00,32.2,23.5,23.99,North,0,26.0,30.0,70,0.00,,,0.00,meteohub,2013-09-26 06:52:00,
2013-09-26 00:57:00,32.2,23.5,23.99,North,0,22.0,33.0,70,0.00,,,0.00,meteohub,2013-09-26 06:57:00,
2013-09-26 01:02:00,32.2,23.5,23.99,North,0,21.0,33.0,70,0.00,,,0.00,meteohub,2013-09-26 07:02:00,
2013-09-26 01:07:00,32.2,23.5,23.99,North,0,21.0,33.0,70,0.00,,,0.00,meteohub,2013-09-26 07:07:00,
2013-09-26 01:12:00,32.0,22.6,23.99,North,0,18.0,28.0,68,0.00,,,0.00,meteohub,2013-09-26 07:12:00,
2013-09-26 01:17:00,32.2,22.8,24.00,North,0,23.0,26.0,68,0.00,,,0.00,meteohub,2013-09-26 07:17:00,
2013-09-26 01:22:00,32.2,22.8,23.99,North,0,27.0,27.0,68,0.00,,,0.00,meteohub,2013-09-26 07:22:00,
2013-09-26 01:27:00,32.0,22.3,24.00,North,0,23.0,30.0,67,0.00,,,0.00,meteohub,2013-09-26 07:27:00,
2013-09-26 01:32:00,32.0,22.3,23.99,North,0,21.0,30.0,67,0.00,,,0.00,meteohub,2013-09-26 07:32:00,
2013-09-26 01:37:00,32.0,22.3,24.00,North,0,20.0,30.0,67,0.00,,,0.00,meteohub,2013-09-26 07:37:00,
2013-09-26 01:42:00,31.8,21.7,23.99,North,0,21.0,25.0,66,0.00,,,0.00,meteohub,2013-09-26 07:42:00,
2013-09-26 01:47:00,31.8,21.7,24.00,North,0,27.0,27.0,66,0.00,,,0.00,meteohub,2013-09-26 07:47:00,
2013-09-26 01:52:00,32.0,21.9,23.99,North,0,22.0,27.0,66,0.00,,,0.00,meteohub,2013-09-26 07:52:00,
2013-09-26 01:57:00,32.0,21.9,23.99,North,0,20.0,27.0,66,0.00,,,0.00,meteohub,2013-09-26 07:57:00,
2013-09-26 02:02:00,32.0,22.3,24.00,North,0,19.0,27.0,67,0.00,,,0.00,meteohub,2013-09-26 08:02:00,
2013-09-26 02:07:00,32.0,22.3,24.00,North,0,19.0,25.0,67,0.00,,,0.00,meteohub,2013-09-26 08:07:00,
2013-09-26 02:12:00,31.8,21.7,24.00,North,0,22.0,22.0,66,0.00,,,0.00,meteohub,2013-09-26 08:12:00,
2013-09-26 02:17:00,31.8,21.7,24.00,North,0,23.0,23.0,66,0.00,,,0.00,meteohub,2013-09-26 08:17:00,
2013-09-26 02:22:00,32.0,21.9,24.01,North,0,17.0,23.0,66,0.00,,,0.00,meteohub,2013-09-26 08:22:00,
2013-09-26 02:27:00,31.8,21.7,24.00,North,0,19.0,23.0,66,0.00,,,0.00,meteohub,2013-09-26 08:27:00,
2013-09-26 02:32:00,31.6,21.2,24.01,North,0,12.0,23.0,65,0.00,,,0.00,meteohub,2013-09-26 08:32:00,
2013-09-26 02:37:00,31.6,21.2,24.01,North,0,14.0,19.0,65,0.00,,,0.00,meteohub,2013-09-26 08:37:00,
2013-09-26 02:42:00,31.6,21.2,24.00,North,0,17.0,19.0,65,0.00,,,0.00,meteohub,2013-09-26 08:42:00,
2013-09-26 02:47:00,31.6,21.6,24.01,North,0,15.0,17.0,66,0.00,,,0.00,meteohub,2013-09-26 08:47:00,
2013-09-26 02:52:00,31.8,21.7,24.00,North,0,17.0,17.0,66,0.00,,,0.00,meteohub,2013-09-26 08:52:00,
2013-09-26 02:57:00,31.8,21.7,24.01,North,0,19.0,19.0,66,0.00,,,0.00,meteohub,2013-09-26 08:57:00,
2013-09-26 03:02:00,32.0,21.9,24.01,North,0,17.0,21.0,66,0.00,,,0.00,meteohub,2013-09-26 09:02:00,
2013-09-26 03:07:00,32.0,21.9,24.01,North,0,17.0,21.0,66,0.00,,,0.00,meteohub,2013-09-26 09:07:00,
2013-09-26 03:12:00,31.6,21.6,24.01,North,0,17.0,21.0,66,0.00,,,0.00,meteohub,2013-09-26 09:12:00,
2013-09-26 03:17:00,31.8,21.7,24.02,North,0,17.0,19.0,66,0.00,,,0.00,meteohub,2013-09-26 09:17:00,
2013-09-26 03:22:00,31.6,21.6,24.01,North,0,14.0,21.0,66,0.00,,,0.00,meteohub,2013-09-26 09:22:00,
2013-09-26 03:27:00,31.6,21.2,24.01,North,0,14.0,21.0,65,0.00,,,0.00,meteohub,2013-09-26 09:27:00,
2013-09-26 03:32:00,31.8,21.4,24.01,North,0,11.0,21.0,65,0.00,,,0.00,meteohub,2013-09-26 09:32:00,
2013-09-26 03:37:00,31.5,21.0,24.01,North,0,11.0,21.0,65,0.00,,,0.00,meteohub,2013-09-26 09:37:00,
2013-09-26 03:42:00,31.3,20.8,24.01,North,0,11.0,21.0,65,0.00,,,0.00,meteohub,2013-09-26 09:42:00,
2013-09-26 03:47:00,31.1,20.7,24.02,North,0,10.0,15.0,65,0.00,,,0.00,meteohub,2013-09-26 09:47:00,
2013-09-26 03:52:00,31.1,20.7,24.02,North,0,8.0,15.0,65,0.00,,,0.00,meteohub,2013-09-26 09:52:00,
2013-09-26 03:57:00,30.6,16.3,24.02,North,0,13.0,13.0,55,0.00,,,0.00,meteohub,2013-09-26 09:57:00,
2013-09-26 04:02:00,30.9,15.8,24.01,North,0,13.0,15.0,53,0.00,,,0.00,meteohub,2013-09-26 10:02:00,
2013-09-26 04:07:00,30.9,15.8,24.01,North,0,13.0,15.0,53,0.00,,,0.00,meteohub,2013-09-26 10:07:00,
2013-09-26 04:12:00,30.9,17.1,24.01,North,0,15.0,15.0,56,0.00,,,0.00,meteohub,2013-09-26 10:12:00,
2013-09-26 04:17:00,30.9,16.7,24.01,North,0,15.0,15.0,55,0.00,,,0.00,meteohub,2013-09-26 10:17:00,
2013-09-26 04:22:00,31.1,16.3,24.01,North,0,20.0,21.0,54,0.00,,,0.00,meteohub,2013-09-26 10:22:00,
2013-09-26 04:27:00,31.3,15.3,24.02,North,0,15.0,21.0,51,0.00,,,0.00,meteohub,2013-09-26 10:27:00,
2013-09-26 04:32:00,31.3,14.4,24.02,North,0,11.0,22.0,49,0.00,,,0.00,meteohub,2013-09-26 10:32:00,
2013-09-26 04:37:00,31.1,14.2,24.02,North,0,11.0,22.0,49,0.00,,,0.00,meteohub,2013-09-26 10:37:00,
2013-09-26 04:42:00,31.1,14.5,24.02,North,0,10.0,17.0,50,0.00,,,0.00,meteohub,2013-09-26 10:42:00,
2013-09-26 04:47:00,31.1,14.5,24.02,North,0,14.0,17.0,50,0.00,,,0.00,meteohub,2013-09-26 10:47:00,
2013-09-26 04:52:00,31.1,15.1,24.02,North,0,14.0,17.0,51,0.00,,,0.00,meteohub,2013-09-26 10:52:00,
2013-09-26 04:57:00,31.1,15.4,24.02,North,0,13.0,17.0,52,0.00,,,0.00,meteohub,2013-09-26 10:57:00,
2013-09-26 05:02:00,31.1,16.0,24.02,North,0,13.0,19.0,53,0.00,,,0.00,meteohub,2013-09-26 11:02:00,
2013-09-26 05:07:00,31.1,16.0,24.02,North,0,13.0,19.0,53,0.00,,,0.00,meteohub,2013-09-26 11:07:00,
2013-09-26 05:12:00,30.9,16.2,24.02,North,0,11.0,15.0,54,0.00,,,0.00,meteohub,2013-09-26 11:12:00,
2013-09-26 05:17:00,30.9,16.2,24.02,North,0,11.0,13.0,54,0.00,,,0.00,meteohub,2013-09-26 11:17:00,
2013-09-26 05:22:00,30.9,16.2,24.02,North,0,14.0,14.0,54,0.00,,,0.00,meteohub,2013-09-26 11:22:00,
2013-09-26 05:27:00,30.7,16.9,24.02,North,0,15.0,15.0,56,0.00,,,0.00,meteohub,2013-09-26 11:27:00,
2013-09-26 05:32:00,30.6,18.0,24.03,North,0,15.0,16.0,59,0.00,,,0.00,meteohub,2013-09-26 11:32:00,
2013-09-26 05:37:00,30.4,19.2,24.03,North,0,14.0,16.0,63,0.00,,,0.00,meteohub,2013-09-26 11:37:00,
2013-09-26 05:42:00,30.0,21.0,24.02,North,0,11.0,15.0,69,0.00,,,0.00,meteohub,2013-09-26 11:42:00,
2013-09-26 05:47:00,30.0,21.7,24.02,North,0,15.0,15.0,71,0.00,,,0.00,meteohub,2013-09-26 11:47:00,
2013-09-26 05:52:00,30.2,20.8,24.03,North,0,11.0,17.0,68,0.00,,,0.00,meteohub,2013-09-26 11:52:00,
2013-09-26 05:57:00,30.4,20.7,24.03,North,0,11.0,17.0,67,0.00,,,0.00,meteohub,2013-09-26 11:57:00,
2013-09-26 06:02:00,30.4,20.7,24.03,North,0,10.0,17.0,67,0.00,,,0.00,meteohub,2013-09-26 12:02:00,
2013-09-26 06:07:00,30.4,20.7,24.04,North,0,10.0,11.0,67,0.00,,,0.00,meteohub,2013-09-26 12:07:00,
2013-09-26 06:12:00,30.4,20.3,24.04,North,0,7.0,11.0,66,0.00,,,0.00,meteohub,2013-09-26 12:12:00,
2013-09-26 06:17:00,30.2,20.5,24.04,North,0,7.0,10.0,67,0.00,,,0.00,meteohub,2013-09-26 12:17:00,
2013-09-26 06:22:00,30.2,21.2,24.04,North,0,12.0,12.0,69,0.00,,,0.00,meteohub,2013-09-26 12:22:00,
2013-09-26 06:27:00,30.0,21.7,24.04,North,0,14.0,14.0,71,0.00,,,0.00,meteohub,2013-09-26 12:27:00,
2013-09-26 06:32:00,29.8,22.3,24.03,North,0,19.0,19.0,73,0.00,,,0.00,meteohub,2013-09-26 12:32:00,
2013-09-26 06:37:00,29.8,22.3,24.03,North,0,16.0,21.0,73,0.00,,,0.00,meteohub,2013-09-26 12:37:00,
2013-09-26 06:42:00,29.8,22.3,24.03,North,0,15.0,21.0,73,0.00,,,0.00,meteohub,2013-09-26 12:42:00,
2013-09-26 06:47:00,29.7,22.6,24.03,North,0,19.0,21.0,75,0.00,,,0.00,meteohub,2013-09-26 12:47:00,
2013-09-26 06:52:00,29.7,23.0,24.03,North,0,18.0,19.0,76,0.00,,,0.00,meteohub,2013-09-26 12:52:00,
2013-09-26 06:57:00,29.7,23.4,24.03,North,0,17.0,21.0,77,0.00,,,0.00,meteohub,2013-09-26 12:57:00,
2013-09-26 07:02:00,29.7,23.4,24.04,North,0,17.0,21.0,77,0.00,,,0.00,meteohub,2013-09-26 13:02:00,
2013-09-26 07:07:00,29.7,23.4,24.04,North,0,17.0,20.0,77,0.00,,,0.00,meteohub,2013-09-26 13:07:00,
2013-09-26 07:12:00,29.3,23.5,24.04,North,0,11.0,17.0,79,0.00,,,0.00,meteohub,2013-09-26 13:12:00,
2013-09-26 07:17:00,29.3,23.9,24.05,North,0,12.0,17.0,80,0.00,,,0.00,meteohub,2013-09-26 13:17:00,
2013-09-26 07:22:00,29.1,24.1,24.04,North,0,11.0,17.0,81,0.00,,,0.00,meteohub,2013-09-26 13:22:00,
2013-09-26 07:27:00,29.3,24.4,24.04,North,0,11.0,13.0,82,0.00,,,0.00,meteohub,2013-09-26 13:27:00,
2013-09-26 07:32:00,29.3,24.3,24.05,North,0,14.0,14.0,81,0.00,,,0.00,meteohub,2013-09-26 13:32:00,
2013-09-26 07:37:00,29.3,24.3,24.04,North,0,14.0,14.0,81,0.00,,,0.00,meteohub,2013-09-26 13:37:00,
2013-09-26 07:42:00,29.5,24.1,24.04,North,0,13.0,14.0,80,0.00,,,0.00,meteohub,2013-09-26 13:42:00,
2013-09-26 07:47:00,29.7,23.9,24.05,North,0,9.0,14.0,79,0.00,,,0.00,meteohub,2013-09-26 13:47:00,
2013-09-26 07:52:00,29.7,23.7,24.05,North,0,0.0,14.0,78,0.00,,,0.00,meteohub,2013-09-26 13:52:00,
2013-09-26 07:57:00,29.7,23.7,24.05,North,0,0.0,13.0,78,0.00,,,0.00,meteohub,2013-09-26 13:57:00,
2013-09-26 08:02:00,29.7,23.7,24.05,North,0,0.0,10.0,78,0.00,,,0.00,meteohub,2013-09-26 14:02:00,
2013-09-26 08:07:00,29.7,23.7,24.05,North,0,0.0,0.0,78,0.00,,,0.00,meteohub,2013-09-26 14:07:00,
2013-09-26 08:12:00,29.7,23.4,24.05,North,0,0.0,0.0,77,0.00,,,0.00,meteohub,2013-09-26 14:12:00,
2013-09-26 08:17:00,29.7,23.4,24.05,North,0,0.0,0.0,77,0.00,,,0.00,meteohub,2013-09-26 14:17:00,
2013-09-26 08:22:00,29.7,23.7,24.05,North,0,0.0,0.0,78,0.00,,,0.00,meteohub,2013-09-26 14:22:00,
2013-09-26 08:27:00,29.8,23.5,24.05,North,0,0.0,0.0,77,0.00,,,0.00,meteohub,2013-09-26 14:27:00,
2013-09-26 08:32:00,29.8,23.5,24.05,North,0,0.0,0.0,77,0.00,,,0.00,meteohub,2013-09-26 14:32:00,
2013-09-26 08:37:00,29.8,23.5,24.06,North,0,0.0,0.0,77,0.00,,,0.00,meteohub,2013-09-26 14:37:00,
2013-09-26 08:42:00,29.8,23.2,24.06,North,0,0.0,0.0,76,0.00,,,0.00,meteohub,2013-09-26 14:42:00,
2013-09-26 08:47:00,30.0,23.4,24.06,North,0,0.0,0.0,76,0.00,,,0.00,meteohub,2013-09-26 14:47:00,
2013-09-26 08:52:00,30.0,23.4,24.06,North,0,0.0,0.0,76,0.00,,,0.00,meteohub,2013-09-26 14:52:00,
2013-09-26 08:57:00,30.0,23.4,24.07,North,0,0.0,0.0,76,0.00,,,0.00,meteohub,2013-09-26 14:57:00,
2013-09-26 09:02:00,30.0,23.0,24.07,North,0,0.0,0.0,75,0.00,,,0.00,meteohub,2013-09-26 15:02:00,
2013-09-26 09:07:00,30.0,23.0,24.07,North,0,0.0,0.0,75,0.00,,,0.00,meteohub,2013-09-26 15:07:00,
2013-09-26 09:12:00,30.0,23.4,24.07,North,0,0.0,0.0,76,0.00,,,0.00,meteohub,2013-09-26 15:12:00,
2013-09-26 09:17:00,30.0,23.4,24.07,North,0,0.0,0.0,76,0.00,,,0.00,meteohub,2013-09-26 15:17:00,
2013-09-26 09:22:00,30.0,23.4,24.07,North,0,0.0,0.0,76,0.00,,,0.00,meteohub,2013-09-26 15:22:00,
2013-09-26 09:27:00,30.0,23.4,24.07,North,0,0.0,0.0,76,0.00,,,0.00,meteohub,2013-09-26 15:27:00,
2013-09-26 09:32:00,30.2,23.2,24.07,North,0,0.0,0.0,75,0.00,,,0.00,meteohub,2013-09-26 15:32:00,
2013-09-26 09:37:00,30.2,23.2,24.08,North,0,0.0,0.0,75,0.00,,,0.00,meteohub,2013-09-26 15:37:00,
2013-09-26 09:42:00,30.2,23.2,24.08,North,0,0.0,0.0,75,0.00,,,0.00,meteohub,2013-09-26 15:42:00,
2013-09-26 09:47:00,30.2,23.2,24.08,North,0,0.0,0.0,75,0.00,,,0.00,meteohub,2013-09-26 15:47:00,
2013-09-26 09:52:00,30.2,23.2,24.08,North,0,0.0,0.0,75,0.00,,,0.00,meteohub,2013-09-26 15:52:00,
2013-09-26 09:57:00,30.4,23.4,24.08,North,0,0.0,0.0,75,0.00,,,0.00,meteohub,2013-09-26 15:57:00,
2013-09-26 10:02:00,30.4,23.4,24.08,North,0,0.0,0.0,75,0.00,,,0.00,meteohub,2013-09-26 16:02:00,
2013-09-26 10:07:00,30.4,23.4,24.09,North,0,0.0,0.0,75,0.00,,,0.00,meteohub,2013-09-26 16:07:00,
2013-09-26 10:12:00,30.6,23.5,24.08,North,0,0.0,0.0,75,0.00,,,0.00,meteohub,2013-09-26 16:12:00,
2013-09-26 10:17:00,30.6,23.2,24.08,North,0,0.0,0.0,74,0.00,,,0.00,meteohub,2013-09-26 16:17:00,
2013-09-26 10:22:00,30.6,23.2,24.08,North,0,0.0,0.0,74,0.00,,,0.00,meteohub,2013-09-26 16:22:00,
2013-09-26 10:27:00,30.6,23.2,24.09,North,0,0.0,0.0,74,0.00,,,0.00,meteohub,2013-09-26 16:27:00,
2013-09-26 10:32:00,30.6,23.2,24.09,North,0,0.0,0.0,74,0.00,,,0.00,meteohub,2013-09-26 16:32:00,
2013-09-26 10:37:00,30.7,23.4,24.09,North,0,0.0,0.0,74,0.00,,,0.00,meteohub,2013-09-26 16:37:00,
2013-09-26 10:42:00,30.9,23.5,24.09,North,0,0.0,0.0,74,0.00,,,0.00,meteohub,2013-09-26 16:42:00,
2013-09-26 10:47:00,31.1,23.5,24.09,North,0,0.0,0.0,73,0.00,,,0.00,meteohub,2013-09-26 16:47:00,
2013-09-26 10:52:00,31.3,23.7,24.09,North,0,0.0,0.0,73,0.00,,,0.00,meteohub,2013-09-26 16:52:00,
2013-09-26 10:57:00,31.3,23.0,24.09,North,0,0.0,0.0,71,0.00,,,0.00,meteohub,2013-09-26 16:57:00,
2013-09-26 11:02:00,31.3,23.0,24.10,North,0,0.0,0.0,71,0.00,,,0.00,meteohub,2013-09-26 17:02:00,
2013-09-26 11:07:00,31.3,23.0,24.10,North,0,0.0,0.0,71,0.00,,,0.00,meteohub,2013-09-26 17:07:00,
2013-09-26 11:12:00,31.6,23.4,24.10,North,0,0.0,0.0,71,0.00,,,0.00,meteohub,2013-09-26 17:12:00,
2013-09-26 11:17:00,31.6,23.4,24.10,North,0,0.0,0.0,71,0.00,,,0.00,meteohub,2013-09-26 17:17:00,
2013-09-26 11:22:00,31.8,24.1,24.10,North,0,0.0,0.0,73,0.00,,,0.00,meteohub,2013-09-26 17:22:00,
2013-09-26 11:27:00,31.8,25.2,24.10,North,0,0.0,0.0,76,0.00,,,0.00,meteohub,2013-09-26 17:27:00,
2013-09-26 11:32:00,32.0,25.9,24.10,North,0,0.0,0.0,78,0.00,,,0.00,meteohub,2013-09-26 17:32:00,
2013-09-26 11:37:00,32.0,26.2,24.10,North,0,0.0,0.0,79,0.00,,,0.00,meteohub,2013-09-26 17:37:00,
2013-09-26 11:42:00,32.2,25.7,24.10,North,0,0.0,0.0,77,0.00,,,0.00,meteohub,2013-09-26 17:42:00,
2013-09-26 11:47:00,32.2,25.7,24.10,North,0,0.0,0.0,77,0.00,,,0.00,meteohub,2013-09-26 17:47:00,
2013-09-26 11:52:00,32.4,26.2,24.10,North,0,0.0,0.0,78,0.00,,,0.00,meteohub,2013-09-26 17:52:00,
2013-09-26 11:57:00,32.4,25.9,24.10,North,0,0.0,0.0,77,0.00,,,0.00,meteohub,2013-09-26 17:57:00,
2013-09-26 12:02:00,32.5,26.1,24.10,North,0,0.0,0.0,77,0.00,,,0.00,meteohub,2013-09-26 18:02:00,
2013-09-26 12:07:00,32.5,26.1,24.10,North,0,0.0,0.0,77,0.00,,,0.00,meteohub,2013-09-26 18:07:00,
2013-09-26 12:12:00,32.4,26.2,24.10,North,0,0.0,0.0,78,0.00,,,0.00,meteohub,2013-09-26 18:12:00,
2013-09-26 12:17:00,32.5,26.1,24.10,North,0,0.0,0.0,77,0.00,,,0.00,meteohub,2013-09-26 18:17:00,
2013-09-26 12:22:00,32.5,26.1,24.10,North,0,0.0,0.0,77,0.00,,,0.00,meteohub,2013-09-26 18:22:00,
2013-09-26 12:27:00,32.5,25.9,24.10,North,0,0.0,0.0,76,0.00,,,0.00,meteohub,2013-09-26 18:27:00,
2013-09-26 12:32:00,32.5,25.9,24.10,North,0,0.0,0.0,76,0.00,,,0.00,meteohub,2013-09-26 18:32:00,
2013-09-26 12:37:00,32.7,25.7,24.10,North,0,0.0,0.0,75,0.00,,,0.00,meteohub,2013-09-26 18:37:00,
2013-09-26 12:42:00,32.7,25.3,24.10,North,0,0.0,0.0,74,0.00,,,0.00,meteohub,2013-09-26 18:42:00,
2013-09-26 12:47:00,32.5,25.2,24.10,North,0,0.0,0.0,74,0.00,,,0.00,meteohub,2013-09-26 18:47:00,
2013-09-26 12:52:00,32.5,24.8,24.11,North,0,0.0,0.0,73,0.00,,,0.00,meteohub,2013-09-26 18:52:00,
2013-09-26 12:57:00,32.5,24.8,24.11,North,0,0.0,0.0,73,0.00,,,0.00,meteohub,2013-09-26 18:57:00,
2013-09-26 13:02:00,32.5,24.4,24.11,North,0,0.0,0.0,72,0.00,,,0.00,meteohub,2013-09-26 19:02:00,
2013-09-26 13:07:00,32.5,24.4,24.11,North,0,0.0,0.0,72,0.00,,,0.00,meteohub,2013-09-26 19:07:00,
2013-09-26 13:12:00,32.9,24.6,24.11,North,0,0.0,0.0,71,0.00,,,0.00,meteohub,2013-09-26 19:12:00,
2013-09-26 13:22:00,32.9,24.6,24.11,North,0,0.0,0.0,71,0.00,,,0.00,meteohub,2013-09-26 19:22:00,
2013-09-26 13:27:00,33.1,25.3,24.11,North,0,0.0,0.0,73,0.00,,,0.00,meteohub,2013-09-26 19:27:00,
2013-09-26 13:32:00,33.3,28.4,24.11,North,0,0.0,0.0,82,0.00,,,0.00,meteohub,2013-09-26 19:32:00,
2013-09-26 13:37:00,33.3,32.7,24.11,North,0,0.0,0.0,98,0.00,,,0.00,meteohub,2013-09-26 19:37:00,
2013-09-26 13:42:00,33.4,33.3,24.10,North,0,0.0,0.0,99,0.00,,,0.00,meteohub,2013-09-26 19:42:00,
2013-09-26 13:47:00,33.6,33.4,24.11,North,0,0.0,0.0,99,0.00,,,0.00,meteohub,2013-09-26 19:47:00,
2013-09-26 13:52:00,33.8,33.6,24.11,North,0,0.0,0.0,99,0.00,,,0.00,meteohub,2013-09-26 19:52:00,
2013-09-26 13:57:00,33.8,33.6,24.10,North,0,0.0,0.0,99,0.00,,,0.00,meteohub,2013-09-26 19:57:00,
2013-09-26 14:02:00,34.0,33.8,24.11,North,0,0.0,0.0,99,0.00,,,0.00,meteohub,2013-09-26 20:02:00,
2013-09-26 14:07:00,34.0,33.8,24.11,North,0,0.0,0.0,99,0.00,,,0.00,meteohub,2013-09-26 20:07:00,
2013-09-26 14:12:00,33.8,33.6,24.11,North,0,0.0,0.0,99,0.00,,,0.00,meteohub,2013-09-26 20:12:00,
2013-09-26 14:17:00,33.6,33.4,24.11,North,0,0.0,0.0,99,0.00,,,0.00,meteohub,2013-09-26 20:17:00,
2013-09-26 14:22:00,33.3,33.1,24.11,North,0,0.0,0.0,99,0.00,,,0.00,meteohub,2013-09-26 20:22:00,
2013-09-26 14:27:00,33.3,33.1,24.11,North,0,0.0,0.0,99,0.00,,,0.00,meteohub,2013-09-26 20:27:00,
2013-09-26 14:32:00,33.4,33.3,24.11,North,0,0.0,0.0,99,0.00,,,0.00,meteohub,2013-09-26 20:32:00,
2013-09-26 14:37:00,33.8,33.6,24.12,North,0,0.0,0.0,99,0.00,,,0.00,meteohub,2013-09-26 20:37:00,
2013-09-26 14:42:00,34.2,34.0,24.11,North,0,0.0,0.0,99,0.00,,,0.00,meteohub,2013-09-26 20:42:00,
2013-09-26 14:47:00,34.0,33.8,24.12,North,0,0.0,0.0,99,0.00,,,0.00,meteohub,2013-09-26 20:47:00,
2013-09-26 14:52:00,34.0,33.8,24.12,North,0,0.0,0.0,99,0.00,,,0.00,meteohub,2013-09-26 20:52:00,
2013-09-26 14:57:00,33.6,33.4,24.12,North,0,0.0,0.0,99,0.00,,,0.00,meteohub,2013-09-26 20:57:00,
2013-09-26 15:02:00,32.4,32.2,24.12,North,0,0.0,0.0,99,0.00,,,0.00,meteohub,2013-09-26 21:02:00,
2013-09-26 15:07:00,32.4,32.2,24.12,North,0,0.0,0.0,99,0.00,,,0.00,meteohub,2013-09-26 21:07:00,
2013-09-26 15:12:00,31.8,31.6,24.12,North,0,0.0,0.0,99,0.00,,,0.00,meteohub,2013-09-26 21:12:00,
2013-09-26 15:17:00,32.4,32.2,24.12,North,0,0.0,0.0,99,0.00,,,0.00,meteohub,2013-09-26 21:17:00,
2013-09-26 15:22:00,32.7,32.5,24.12,North,0,0.0,0.0,99,0.00,,,0.00,meteohub,2013-09-26 21:22:00,
2013-09-26 15:27:00,32.5,32.4,24.12,North,0,0.0,0.0,99,0.00,,,0.00,meteohub,2013-09-26 21:27:00,
2013-09-26 15:32:00,32.4,32.2,24.12,North,0,0.0,0.0,99,0.00,,,0.00,meteohub,2013-09-26 21:32:00,
2013-09-26 15:37:00,32.4,32.2,24.12,North,0,0.0,0.0,99,0.00,,,0.00,meteohub,2013-09-26 21:37:00,
2013-09-26 15:42:00,32.5,32.4,24.12,North,0,0.0,0.0,99,0.00,,,0.00,meteohub,2013-09-26 21:42:00,
2013-09-26 15:47:00,32.4,32.2,24.12,North,0,0.0,0.0,99,0.00,,,0.00,meteohub,2013-09-26 21:47:00,
2013-09-26 15:52:00,32.4,32.2,24.12,North,0,0.0,0.0,99,0.00,,,0.00,meteohub,2013-09-26 21:52:00,
2013-09-26 15:57:00,32.4,32.2,24.12,North,0,0.0,0.0,99,0.00,,,0.00,meteohub,2013-09-26 21:57:00,
2013-09-26 16:02:00,32.4,32.2,24.12,North,0,0.0,0.0,99,0.00,,,0.00,meteohub,2013-09-26 22:02:00,
2013-09-26 16:07:00,32.4,32.2,24.12,North,0,0.0,0.0,99,0.00,,,0.00,meteohub,2013-09-26 22:07:00,
2013-09-26 16:12:00,32.5,32.4,24.12,North,0,0.0,0.0,99,0.00,,,0.00,meteohub,2013-09-26 22:12:00,
2013-09-26 16:17:00,32.9,32.7,24.12,North,0,0.0,0.0,99,0.00,,,0.00,meteohub,2013-09-26 22:17:00,
2013-09-26 16:22:00,33.3,33.1,24.13,North,0,0.0,0.0,99,0.00,,,0.00,meteohub,2013-09-26 22:22:00,
2013-09-26 16:27:00,33.4,33.3,24.13,North,0,0.0,0.0,99,0.00,,,0.00,meteohub,2013-09-26 22:27:00,
2013-09-26 16:32:00,33.6,33.4,24.13,North,0,0.0,0.0,99,0.00,,,0.00,meteohub,2013-09-26 22:32:00,
2013-09-26 16:37:00,33.8,33.6,24.13,North,0,0.0,0.0,99,0.00,,,0.00,meteohub,2013-09-26 22:37:00,
2013-09-26 16:42:00,34.3,34.2,24.13,North,0,0.0,0.0,99,0.00,,,0.00,meteohub,2013-09-26 22:42:00,
2013-09-26 16:47:00,34.9,34.7,24.14,North,0,0.0,0.0,99,0.00,,,0.00,meteohub,2013-09-26 22:47:00,
2013-09-26 16:52:00,35.4,35.2,24.14,North,0,0.0,0.0,99,0.00,,,0.00,meteohub,2013-09-26 22:52:00,
2013-09-26 17:02:00,34.7,34.5,24.14,North,0,0.0,0.0,99,0.00,,,0.00,meteohub,2013-09-26 23:02:00,
2013-09-26 17:07:00,34.7,34.5,24.14,North,0,0.0,0.0,99,0.00,,,0.00,meteohub,2013-09-26 23:07:00,
2013-09-26 17:12:00,33.4,33.3,24.14,North,0,0.0,0.0,99,0.00,,,0.00,meteohub,2013-09-26 23:12:00,
2013-09-26 17:17:00,33.1,32.9,24.14,North,0,0.0,0.0,99,0.00,,,0.00,meteohub,2013-09-26 23:17:00,
2013-09-26 17:22:00,32.9,32.7,24.14,North,0,0.0,0.0,99,0.00,,,0.00,meteohub,2013-09-26 23:22:00,
2013-09-26 17:27:00,32.9,32.7,24.14,North,0,0.0,0.0,99,0.00,,,0.00,meteohub,2013-09-26 23:27:00,
2013-09-26 17:32:00,32.7,32.5,24.14,North,0,0.0,0.0,99,0.00,,,0.00,meteohub,2013-09-26 23:32:00,
2013-09-26 17:37:00,32.5,32.4,24.14,North,0,0.0,0.0,99,0.00,,,0.00,meteohub,2013-09-26 23:37:00,
2013-09-26 17:42:00,32.5,32.4,24.14,North,0,0.0,0.0,99,0.00,,,0.00,meteohub,2013-09-26 23:42:00,
2013-09-26 17:47:00,32.5,32.4,24.14,North,0,0.0,0.0,99,0.00,,,0.00,meteohub,2013-09-26 23:47:00,
2013-09-26 17:52:00,32.4,32.2,24.14,North,0,0.0,0.0,99,0.00,,,0.00,meteohub,2013-09-26 23:52:00,
2013-09-26 17:57:00,32.4,32.2,24.15,North,0,0.0,0.0,99,0.00,,,0.00,meteohub,2013-09-26 23:57:00,
2013-09-26 18:02:00,32.4,32.2,24.14,North,0,0.0,0.0,99,0.00,,,0.00,meteohub,2013-09-27 00:02:00,
2013-09-26 18:07:00,32.4,32.2,24.14,North,0,0.0,0.0,99,0.00,,,0.00,meteohub,2013-09-27 00:07:00,
2013-09-26 18:12:00,32.5,32.4,24.14,North,0,0.0,0.0,99,0.00,,,0.00,meteohub,2013-09-27 00:12:00,
2013-09-26 18:17:00,32.7,32.5,24.15,North,0,0.0,0.0,99,0.00,,,0.00,meteohub,2013-09-27 00:17:00,
2013-09-26 18:22:00,32.5,32.4,24.14,North,0,0.0,0.0,99,0.00,,,0.00,meteohub,2013-09-27 00:22:00,
2013-09-26 18:27:00,32.5,32.4,24.14,North,0,0.0,0.0,99,0.00,,,0.00,meteohub,2013-09-27 00:27:00,
2013-09-26 18:32:00,32.4,32.2,24.14,North,0,0.0,0.0,99,0.00,,,0.00,meteohub,2013-09-27 00:32:00,
2013-09-26 18:37:00,32.2,32.0,24.14,North,0,0.0,0.0,99,0.00,,,0.00,meteohub,2013-09-27 00:37:00,
2013-09-26 18:42:00,32.0,31.8,24.14,North,0,0.0,0.0,99,0.00,,,0.00,meteohub,2013-09-27 00:42:00,
2013-09-26 18:47:00,32.0,31.8,24.14,North,0,0.0,0.0,99,0.00,,,0.00,meteohub,2013-09-27 00:47:00,
2013-09-26 18:52:00,31.8,31.6,24.14,North,0,0.0,0.0,99,0.00,,,0.00,meteohub,2013-09-27 00:52:00,
2013-09-26 18:57:00,31.6,31.5,24.14,North,0,0.0,0.0,99,0.00,,,0.00,meteohub,2013-09-27 00:57:00,
2013-09-26 19:02:00,31.5,31.3,24.14,North,0,0.0,0.0,99,0.00,,,0.00,meteohub,2013-09-27 01:02:00,
2013-09-26 19:07:00,31.5,31.3,24.14,North,0,0.0,0.0,99,0.00,,,0.00,meteohub,2013-09-27 01:07:00,
2013-09-26 19:12:00,31.5,31.3,24.15,North,0,0.0,0.0,99,0.00,,,0.00,meteohub,2013-09-27 01:12:00,
2013-09-26 19:17:00,31.1,30.9,24.15,North,0,0.0,0.0,99,0.00,,,0.00,meteohub,2013-09-27 01:17:00,
2013-09-26 19:22:00,30.7,30.6,24.14,North,0,0.0,0.0,99,0.00,,,0.00,meteohub,2013-09-27 01:22:00,
2013-09-26 19:27:00,30.6,30.4,24.14,North,0,0.0,0.0,99,0.00,,,0.00,meteohub,2013-09-27 01:27:00,
2013-09-26 19:32:00,30.6,30.4,24.15,North,0,0.0,0.0,99,0.00,,,0.00,meteohub,2013-09-27 01:32:00,
2013-09-26 19:37:00,30.7,30.6,24.15,North,0,0.0,0.0,99,0.00,,,0.00,meteohub,2013-09-27 01:37:00,
2013-09-26 19:42:00,30.9,30.7,24.15,North,0,0.0,0.0,99,0.00,,,0.00,meteohub,2013-09-27 01:42:00,
2013-09-26 19:47:00,30.9,30.7,24.15,North,0,0.0,0.0,99,0.00,,,0.00,meteohub,2013-09-27 01:47:00,
2013-09-26 19:52:00,30.9,30.7,24.15,North,0,0.0,0.0,99,0.00,,,0.00,meteohub,2013-09-27 01:52:00,
2013-09-26 19:57:00,31.1,30.9,24.15,North,0,0.0,0.0,99,0.00,,,0.00,meteohub,2013-09-27 01:57:00,
2013-09-26 20:02:00,31.3,31.1,24.15,North,0,0.0,0.0,99,0.00,,,0.00,meteohub,2013-09-27 02:02:00,
2013-09-26 20:07:00,31.3,31.1,24.15,North,0,0.0,0.0,99,0.00,,,0.00,meteohub,2013-09-27 02:07:00,
2013-09-26 20:12:00,31.3,31.1,24.15,North,0,0.0,0.0,99,0.00,,,0.00,meteohub,2013-09-27 02:12:00,
2013-09-26 20:17:00,31.3,31.1,24.15,North,0,0.0,0.0,99,0.00,,,0.00,meteohub,2013-09-27 02:17:00,
2013-09-26 20:22:00,31.3,31.1,24.15,North,0,0.0,0.0,99,0.00,,,0.00,meteohub,2013-09-27 02:22:00,
2013-09-26 20:27:00,31.3,31.1,24.15,North,0,0.0,0.0,99,0.00,,,0.00,meteohub,2013-09-27 02:27:00,
2013-09-26 20:32:00,31.3,31.1,24.15,North,0,0.0,0.0,99,0.00,,,0.00,meteohub,2013-09-27 02:32:00,
2013-09-26 20:37:00,31.3,31.1,24.15,North,0,0.0,0.0,99,0.00,,,0.00,meteohub,2013-09-27 02:37:00,
2013-09-26 20:42:00,31.5,31.3,24.15,North,0,0.0,0.0,99,0.00,,,0.00,meteohub,2013-09-27 02:42:00,
2013-09-26 20:47:00,31.5,31.3,24.15,North,0,0.0,0.0,99,0.00,,,0.00,meteohub,2013-09-27 02:47:00,
2013-09-26 20:52:00,31.5,31.3,24.15,North,0,0.0,0.0,99,0.00,,,0.00,meteohub,2013-09-27 02:52:00,
2013-09-26 20:57:00,31.6,31.5,24.15,North,0,0.0,0.0,99,0.00,,,0.00,meteohub,2013-09-27 02:57:00,
2013-09-26 21:02:00,31.6,31.5,24.15,North,0,0.0,0.0,99,0.00,,,0.00,meteohub,2013-09-27 03:02:00,
2013-09-26 21:07:00,31.6,31.5,24.15,North,0,0.0,0.0,99,0.00,,,0.00,meteohub,2013-09-27 03:07:00,
2013-09-26 21:12:00,31.5,31.3,24.14,North,0,0.0,0.0,99,0.00,,,0.00,meteohub,2013-09-27 03:12:00,
2013-09-26 21:17:00,31.5,31.3,24.14,North,0,0.0,0.0,99,0.00,,,0.00,meteohub,2013-09-27 03:17:00,
2013-09-26 21:22:00,31.3,31.1,24.14,North,0,0.0,0.0,99,0.00,,,0.00,meteohub,2013-09-27 03:22:00,
2013-09-26 21:27:00,31.3,31.1,24.14,North,0,0.0,0.0,99,0.00,,,0.00,meteohub,2013-09-27 03:27:00,
2013-09-26 21:32:00,31.3,31.1,24.14,North,0,0.0,0.0,99,0.00,,,0.00,meteohub,2013-09-27 03:32:00,
2013-09-26 21:37:00,31.3,31.1,24.14,North,0,0.0,0.0,99,0.00,,,0.00,meteohub,2013-09-27 03:37:00,
2013-09-26 21:42:00,31.3,31.1,24.14,North,0,0.0,0.0,99,0.00,,,0.00,meteohub,2013-09-27 03:42:00,
2013-09-26 21:47:00,31.3,31.1,24.14,North,0,0.0,0.0,99,0.00,,,0.00,meteohub,2013-09-27 03:47:00,
2013-09-26 21:52:00,31.1,30.9,24.14,North,0,0.0,0.0,99,0.00,,,0.00,meteohub,2013-09-27 03:52:00,
2013-09-26 21:57:00,31.3,31.1,24.14,North,0,0.0,0.0,99,0.00,,,0.00,meteohub,2013-09-27 03:57:00,
2013-09-26 22:02:00,31.3,31.1,24.14,North,0,0.0,0.0,99,0.00,,,0.00,meteohub,2013-09-27 04:02:00,
2013-09-26 22:07:00,31.3,31.1,24.15,North,0,0.0,0.0,99,0.00,,,0.00,meteohub,2013-09-27 04:07:00,
2013-09-26 22:12:00,31.3,31.1,24.15,North,0,0.0,0.0,99,0.00,,,0.00,meteohub,2013-09-27 04:12:00,
2013-09-26 22:17:00,31.3,31.1,24.15,North,0,0.0,0.0,99,0.00,,,0.00,meteohub,2013-09-27 04:17:00,
2013-09-26 22:22:00,31.5,31.3,24.15,North,0,0.0,0.0,99,0.00,,,0.00,meteohub,2013-09-27 04:22:00,
2013-09-26 22:27:00,31.6,31.5,24.15,North,0,0.0,0.0,99,0.00,,,0.00,meteohub,2013-09-27 04:27:00,
2013-09-26 22:32:00,31.6,31.5,24.16,North,0,0.0,0.0,99,0.00,,,0.00,meteohub,2013-09-27 04:32:00,
2013-09-26 22:37:00,31.8,31.6,24.15,North,0,0.0,0.0,99,0.00,,,0.00,meteohub,2013-09-27 04:37:00,
2013-09-26 22:42:00,31.8,31.6,24.14,North,0,0.0,0.0,99,0.00,,,0.00,meteohub,2013-09-27 04:42:00,
2013-09-26 22:47:00,31.6,31.5,24.13,North,0,0.0,0.0,99,0.00,,,0.00,meteohub,2013-09-27 04:47:00,
2013-09-26 22:52:00,31.6,31.5,24.14,North,0,0.0,0.0,99,0.00,,,0.00,meteohub,2013-09-27 04:52:00,
2013-09-26 22:57:00,31.6,31.5,24.14,North,0,0.0,0.0,99,0.00,,,0.00,meteohub,2013-09-27 04:57:00,
2013-09-26 23:02:00,31.6,31.5,24.14,North,0,0.0,0.0,99,0.00,,,0.00,meteohub,2013-09-27 05:02:00,
2013-09-26 23:07:00,31.6,31.5,24.14,North,0,0.0,0.0,99,0.00,,,0.00,meteohub,2013-09-27 05:07:00,
2013-09-26 23:12:00,31.5,31.3,24.14,North,0,0.0,0.0,99,0.00,,,0.00,meteohub,2013-09-27 05:12:00,
2013-09-26 23:17:00,31.5,31.3,24.14,North,0,0.0,0.0,99,0.00,,,0.00,meteohub,2013-09-27 05:17:00,
2013-09-26 23:22:00,31.5,31.3,24.14,North,0,0.0,0.0,99,0.00,,,0.00,meteohub,2013-09-27 05:22:00,
2013-09-26 23:27:00,31.5,31.3,24.14,North,0,0.0,0.0,99,0.00,,,0.00,meteohub,2013-09-27 05:27:00,
2013-09-26 23:32:00,31.5,31.3,24.14,North,0,0.0,0.0,99,0.00,,,0.00,meteohub,2013-09-27 05:32:00,
2013-09-26 23:37:00,31.5,31.3,24.14,North,0,0.0,0.0,99,0.00,,,0.00,meteohub,2013-09-27 05:37:00,
2013-09-26 23:42:00,31.5,31.3,24.14,North,0,0.0,0.0,99,0.00,,,0.00,meteohub,2013-09-27 05:42:00,
2013-09-26 23:47:00,31.5,31.3,24.14,North,0,0.0,0.0,99,0.00,,,0.00,meteohub,2013-09-27 05:47:00,
2013-09-26 23:52:00,31.5,31.3,24.14,North,0,0.0,0.0,99,0.00,,,0.00,meteohub,2013-09-27 05:52:00,
2013-09-26 23:57:00,31.5,31.3,24.14,North,0,0.0,0.0,99,0.00,,,0.00,meteohub,2013-09-27 05:57:00,